This is the latest recevied weather packets stored in our database for station/object G7GQA-4. If no packets are shown the sender has not sent any weather packets the latest 10 day(s).
| Time | Temp. | Humidity | Pressure | Rain* | Wind** | Luminosity | Snow |
|---|---|---|---|---|---|---|---|
| 1777703123 | 8.89° C | 94% | - | 0 mm | - | 87 W/m² | - |
| 1777702524 | 8.33° C | 94% | - | 0 mm | - | 73 W/m² | - |
| 1777701923 | 7.78° C | 95% | - | 0 mm | - | 79 W/m² | - |
| 1777701324 | 7.22° C | 95% | - | 0 mm | - | 59 W/m² | - |
| 1777700723 | 6.67° C | 95% | - | 0 mm | - | 51 W/m² | - |
| 1777700123 | 6.11° C | 95% | - | 0 mm | - | 35 W/m² | - |
| 1777699524 | 6.11° C | 94% | - | 0 mm | - | 28 W/m² | - |
| 1777698923 | 5.56° C | 94% | - | 0 mm | - | 19 W/m² | - |
| 1777698324 | 5.56° C | 94% | - | 0 mm | - | 13 W/m² | - |
| 1777697724 | 5.56° C | 94% | - | 0 mm | - | 9 W/m² | - |
| 1777697124 | 5.56° C | 94% | - | 0 mm | - | 5 W/m² | - |
| 1777696524 | 5.56° C | 94% | - | 0 mm | - | 2 W/m² | - |
| 1777695924 | 5.56° C | 94% | - | 0 mm | - | 1 W/m² | - |
| 1777695324 | 5.56° C | 94% | - | 0 mm | - | 0 W/m² | - |
| 1777694724 | 5.56° C | 94% | - | 0 mm | - | 0 W/m² | - |
| 1777694124 | 5.56° C | 94% | - | 0 mm | - | 0 W/m² | - |
| 1777693524 | 5.56° C | 94% | - | 0 mm | - | 0 W/m² | - |
| 1777692924 | 5.56° C | 94% | - | 0 mm | - | 0 W/m² | - |
| 1777692324 | 6.11° C | 94% | - | 0 mm | - | 0 W/m² | - |
| 1777691724 | 6.11° C | 94% | - | 0 mm | - | 0 W/m² | - |
| 1777691124 | 6.11° C | 94% | - | 0 mm | - | 0 W/m² | - |
| 1777690524 | 6.11° C | 94% | - | 0 mm | - | 0 W/m² | - |
| 1777689923 | 6.67° C | 94% | - | 0 mm | - | 0 W/m² | - |
| 1777689324 | 6.67° C | 93% | - | 0 mm | - | 0 W/m² | - |
| 1777688724 | 6.67° C | 93% | - | 0 mm | - | 0 W/m² | - |
* Rain latest hour (hover to see other rain measurements)
** Current wind speed in m/s (hover to see current wind gust speed)